Tukushi — JJ4050 — position and weather

sailwx.info

Track history (hours):
 
Tides and Currents Weather Stations Pressure Air Temp Water Temp Dewpoint Dewpoint Depression Visibility Wind Speed Wind Dir Waves Ship Positions

Tukushi

Last reported at 2018-Jun-18 22:31 UTC. Time now 2018-Jun-18 22:34 UTC.
Position N 34°42' E 135°17'.

Length 195 m; draft 6 m.

Type: Passenger vessel. MMSI: 431301679.

Date/timePositionNaut miles runAvg speedWind from/ knotsBaromVisibWave heightAir tempDewpointWater temp
2018-Jun-18 22:31N 34°42' E 135°17'0 0.8
2018-Jun-18 22:00N 34°42' E 135°18'613.1
2018-Jun-18 21:31N 34°35' E 135°17'1020.3
2018-Jun-18 21:01N 34°35' E 135°04'1020.7
2018-Jun-18 20:31N 34°34' E 134°52'1020.9
2018-Jun-18 20:01N 34°30' E 134°40'1121.1
2018-Jun-18 19:30N 34°26' E 134°28'1020.8
2018-Jun-18 19:00N 34°23' E 134°16'2 0.1
2018-Jun-17 13:42N 34°24' E 134°14'523.5
2018-Jun-17 13:30N 34°25' E 134°19'1122.1
2018-Jun-17 13:01N 34°28' E 134°32'1122.6
2018-Jun-17 12:30N 34°33' E 134°45'1224.4
2018-Jun-17 12:00N 34°37' E 134°58'1122.1
2018-Jun-17 11:31N 34°36' E 135°12'714.4
2018-Jun-17 11:00N 34°42' E 135°17'0 0.5
2018-Jun-17 10:30N 34°42' E 135°17'0 0.0
2018-Jun-17 10:00N 34°42' E 135°17'0 0.0
2018-Jun-17 09:28N 34°42' E 135°17'0 0.0
2018-Jun-17 08:57N 34°42' E 135°17'0 0.0
2018-Jun-17 08:30N 34°42' E 135°17'0 0.0
2018-Jun-17 08:00N 34°42' E 135°17'0 0.0
2018-Jun-17 07:30N 34°42' E 135°17'0 0.0
2018-Jun-17 06:59N 34°42' E 135°17'0 0.0
2018-Jun-17 06:30N 34°42' E 135°17'0 0.0
2018-Jun-17 06:00N 34°42' E 135°17'0 0.0
2018-Jun-17 05:30N 34°42' E 135°17'0 0.0
2018-Jun-17 04:54N 34°42' E 135°17'0 0.0
2018-Jun-17 04:28N 34°42' E 135°17'0 0.0
2018-Jun-17 04:00N 34°42' E 135°17'0 0.0
2018-Jun-17 03:30N 34°42' E 135°17'0 0.0
2018-Jun-17 03:00N 34°42' E 135°17'0 0.0
2018-Jun-17 02:30N 34°42' E 135°17'0 0.0
2018-Jun-17 02:00N 34°42' E 135°17'0 0.0
2018-Jun-17 01:30N 34°42' E 135°17'0 0.0
2018-Jun-17 01:00N 34°42' E 135°17'0 0.0
2018-Jun-17 00:30N 34°42' E 135°17'0 0.0
2018-Jun-17 00:00N 34°42' E 135°17'0 0.0
2018-Jun-16 23:30N 34°42' E 135°17'2 4.5
2018-Jun-16 23:00N 34°40' E 135°18'816.1
2018-Jun-16 22:30N 34°35' E 135°11'1121.0
2018-Jun-16 21:59N 34°37' E 134°58'1021.2
2018-Jun-16 21:30N 34°32' E 134°46'1121.2
2018-Jun-16 21:00N 34°28' E 134°34'1120.9
2018-Jun-16 20:30N 34°24' E 134°23'7 0.2
2018-Jun-15 13:40N 34°24' E 134°14'322.5
2018-Jun-15 13:30N 34°25' E 134°18'1122.3
2018-Jun-15 13:01N 34°28' E 134°31'1122.7
2018-Jun-15 12:31N 34°32' E 134°44'1325.2
2018-Jun-15 11:59N 34°38' E 134°58'1122.9
2018-Jun-15 11:31N 34°36' E 135°11'714.4
2018-Jun-15 11:01N 34°42' E 135°17'0 0.4
2018-Jun-15 10:28N 34°42' E 135°17'0 0.0
2018-Jun-15 09:56N 34°42' E 135°17'0 0.0
2018-Jun-15 09:29N 34°42' E 135°17'0 0.0
2018-Jun-15 09:00N 34°42' E 135°17'0 0.0
2018-Jun-15 08:30N 34°42' E 135°17'0 0.0
2018-Jun-15 08:00N 34°42' E 135°17'0 0.0
2018-Jun-15 07:30N 34°42' E 135°17'0 0.0
2018-Jun-15 07:00N 34°42' E 135°17'0 0.0
2018-Jun-15 06:31N 34°42' E 135°17'0 0.0
2018-Jun-15 05:57N 34°42' E 135°17'0 0.0
2018-Jun-15 05:30N 34°42' E 135°17'0 0.0
2018-Jun-15 05:01N 34°42' E 135°17'0 0.0
2018-Jun-15 04:29N 34°42' E 135°17'0 0.0
2018-Jun-15 04:00N 34°42' E 135°17'0 0.0
2018-Jun-15 03:30N 34°42' E 135°17'0 0.0
2018-Jun-15 03:00N 34°42' E 135°17'0 0.0
2018-Jun-15 02:31N 34°42' E 135°17'0 0.0
2018-Jun-15 02:00N 34°42' E 135°17'0 0.0
2018-Jun-15 01:30N 34°42' E 135°17'0 0.0
2018-Jun-15 01:00N 34°42' E 135°17'0 0.0
2018-Jun-15 00:28N 34°42' E 135°17'0 0.0
2018-Jun-15 00:00N 34°42' E 135°17'0 0.0
2018-Jun-14 23:29N 34°42' E 135°17'0 0.0
2018-Jun-14 23:00N 34°42' E 135°17'0 0.0
2018-Jun-14 22:30N 34°42' E 135°17'0 0.0
2018-Jun-14 22:01N 34°42' E 135°17'4 8.7
2018-Jun-14 21:31N 34°38' E 135°18'1019.6
2018-Jun-14 21:00N 34°35' E 135°07'1020.0
2018-Jun-14 20:30N 34°35' E 134°54'1121.4
2018-Jun-14 20:00N 34°31' E 134°42'1121.4
2018-Jun-14 19:30N 34°27' E 134°30'1121.2
2018-Jun-14 19:00N 34°24' E 134°18'5 0.2
2018-Jun-13 12:16N 34°25' E 134°12'622.8
2018-Jun-13 12:00N 34°25' E 134°20'1122.7
2018-Jun-13 11:31N 34°29' E 134°33'1223.1
2018-Jun-13 11:01N 34°33' E 134°45'1325.4
2018-Jun-13 10:30N 34°38' E 134°60'1121.9
2018-Jun-13 10:00N 34°36' E 135°13'713.3
2018-Jun-13 09:30N 34°42' E 135°17'0 0.0
2018-Jun-13 09:00N 34°42' E 135°17'0 0.0
2018-Jun-13 08:30N 34°42' E 135°17'0 0.0
2018-Jun-13 08:00N 34°42' E 135°17'0 0.0
2018-Jun-13 07:30N 34°42' E 135°17'0 0.0
2018-Jun-13 07:00N 34°42' E 135°17'0 0.0
2018-Jun-13 06:30N 34°42' E 135°17'0 0.0
2018-Jun-13 06:00N 34°42' E 135°17'0 0.0
2018-Jun-13 05:30N 34°42' E 135°17'0 0.0
2018-Jun-13 05:00N 34°42' E 135°17'0 0.0
2018-Jun-13 04:29N 34°42' E 135°17'0 0.0
2018-Jun-13 04:00N 34°42' E 135°17'0 0.0
2018-Jun-13 03:27N 34°42' E 135°17'0 0.0
2018-Jun-13 03:00N 34°42' E 135°17'0 0.0
2018-Jun-13 02:30N 34°42' E 135°17'0 0.0
2018-Jun-13 01:58N 34°42' E 135°17'0 0.0
2018-Jun-13 01:30N 34°42' E 135°17'0 0.0
2018-Jun-13 01:00N 34°42' E 135°17'0 0.0
2018-Jun-13 00:27N 34°42' E 135°17'0 0.0
2018-Jun-13 00:00N 34°42' E 135°17'0 0.0
2018-Jun-12 23:28N 34°42' E 135°17'0 0.0
2018-Jun-12 23:00N 34°42' E 135°17'0 0.0
2018-Jun-12 22:26N 34°42' E 135°17'0 0.1
2018-Jun-12 22:00N 34°42' E 135°17'4 8.3
2018-Jun-12 21:31N 34°38' E 135°18'1019.1
2018-Jun-12 21:00N 34°35' E 135°07'1019.6
2018-Jun-12 20:30N 34°36' E 134°55'1121.6
2018-Jun-12 20:00N 34°31' E 134°43'1122.2
2018-Jun-12 19:31N 34°27' E 134°31'1122.4
2018-Jun-12 19:01N 34°23' E 134°18'4 0.1
2018-Jun-11 12:14N 34°24' E 134°13'522.2
2018-Jun-11 12:00N 34°25' E 134°20'1122.6
2018-Jun-11 11:30N 34°29' E 134°33'1223.1
2018-Jun-11 11:01N 34°33' E 134°45'1224.1
2018-Jun-11 10:30N 34°38' E 134°59'1122.6
2018-Jun-11 10:00N 34°37' E 135°13'612.6
2018-Jun-11 09:30N 34°42' E 135°17'0 0.0
2018-Jun-11 09:00N 34°42' E 135°17'0 0.0
2018-Jun-11 08:29N 34°42' E 135°17'0 0.0
2018-Jun-11 08:00N 34°42' E 135°17'0 0.0
2018-Jun-11 07:28N 34°42' E 135°17'0 0.0
2018-Jun-11 07:00N 34°42' E 135°17'0 0.0
2018-Jun-11 06:30N 34°42' E 135°17'0 0.0
2018-Jun-11 05:58N 34°42' E 135°17'0 0.0
2018-Jun-11 05:30N 34°42' E 135°17'0 0.0
2018-Jun-11 05:00N 34°42' E 135°17'0 0.0
2018-Jun-11 04:30N 34°42' E 135°17'0 0.0
2018-Jun-11 04:00N 34°42' E 135°17'0 0.0
2018-Jun-11 03:29N 34°42' E 135°17'0 0.0
2018-Jun-11 02:59N 34°42' E 135°17'0 0.0
2018-Jun-11 02:30N 34°42' E 135°17'0 0.0
2018-Jun-11 02:00N 34°42' E 135°17'0 0.0
2018-Jun-11 01:30N 34°42' E 135°17'0 0.0
2018-Jun-11 01:00N 34°42' E 135°17'0 0.0
2018-Jun-11 00:30N 34°42' E 135°17'0 0.0
2018-Jun-11 00:00N 34°42' E 135°17'0 0.0
2018-Jun-10 23:30N 34°42' E 135°17'3 5.3
2018-Jun-10 23:00N 34°39' E 135°18'918.2
2018-Jun-10 22:31N 34°35' E 135°09'816.1
2018-Jun-10 22:00N 34°37' E 134°59'1020.3
2018-Jun-10 21:30N 34°33' E 134°48'1121.7
2018-Jun-10 21:00N 34°29' E 134°36'1122.3
2018-Jun-10 20:30N 34°25' E 134°23'10 0.3
2018-Jun-09 13:51N 34°25' E 134°11'721.3
2018-Jun-09 13:31N 34°25' E 134°19'1122.6
2018-Jun-09 13:01N 34°29' E 134°32'1122.8
2018-Jun-09 12:31N 34°33' E 134°45'1122.7
2018-Jun-09 12:00N 34°37' E 134°58'1121.2
2018-Jun-09 11:30N 34°36' E 135°11'815.5
2018-Jun-09 11:00N 34°42' E 135°17'0 0.6
2018-Jun-09 10:30N 34°42' E 135°17'0 0.0
2018-Jun-09 10:00N 34°42' E 135°17'0 0.0
2018-Jun-09 09:29N 34°42' E 135°17'0 0.0
2018-Jun-09 08:59N 34°42' E 135°17'0 0.0
2018-Jun-09 08:30N 34°42' E 135°17'0 0.0
2018-Jun-09 07:58N 34°42' E 135°17'0 0.0
2018-Jun-09 07:29N 34°42' E 135°17'0 0.0
2018-Jun-09 06:59N 34°42' E 135°17'0 0.0
2018-Jun-09 06:26N 34°42' E 135°17'0 0.0
2018-Jun-09 06:00N 34°42' E 135°17'0 0.0
2018-Jun-09 05:30N 34°42' E 135°17'0 0.0
2018-Jun-09 04:59N 34°42' E 135°17'0 0.0
2018-Jun-09 04:30N 34°42' E 135°17'0 0.0
2018-Jun-09 04:00N 34°42' E 135°17'0 0.0
2018-Jun-09 03:28N 34°42' E 135°17'0 0.0
2018-Jun-09 03:00N 34°42' E 135°17'0 0.0
2018-Jun-09 02:30N 34°42' E 135°17'0 0.0
2018-Jun-09 01:56N 34°42' E 135°17'0 0.0
2018-Jun-09 01:28N 34°42' E 135°17'0 0.0
2018-Jun-09 01:00N 34°42' E 135°17'0 0.0
2018-Jun-09 00:30N 34°42' E 135°17'0 0.0
2018-Jun-09 00:00N 34°42' E 135°17'0 0.0
2018-Jun-08 23:30N 34°42' E 135°17'3 5.4
2018-Jun-08 23:00N 34°39' E 135°18'  
Track history (hours):
 
Tides and Currents Weather Stations Pressure Air Temp Water Temp Dewpoint Dewpoint Depression Visibility Wind Speed Wind Dir Waves Ship Positions

Tukushi

Last reported at 2018-Jun-18 22:31 UTC. Time now 2018-Jun-18 22:34 UTC.
Position N 34°42' E 135°17'.

Length 195 m; draft 6 m.

Type: Passenger vessel. MMSI: 431301679.

Date/timePositionNaut miles runAvg speedWind from/ knotsBaromVisibWave heightAir tempDewpointWater temp
2018-Jun-18 22:31N 34°42' E 135°17'0 0.8
2018-Jun-18 22:00N 34°42' E 135°18'613.1
2018-Jun-18 21:31N 34°35' E 135°17'1020.3
2018-Jun-18 21:01N 34°35' E 135°04'1020.7
2018-Jun-18 20:31N 34°34' E 134°52'1020.9
2018-Jun-18 20:01N 34°30' E 134°40'1121.1
2018-Jun-18 19:30N 34°26' E 134°28'1020.8
2018-Jun-18 19:00N 34°23' E 134°16'2 0.1
2018-Jun-17 13:42N 34°24' E 134°14'523.5
2018-Jun-17 13:30N 34°25' E 134°19'1122.1
2018-Jun-17 13:01N 34°28' E 134°32'1122.6
2018-Jun-17 12:30N 34°33' E 134°45'1224.4
2018-Jun-17 12:00N 34°37' E 134°58'1122.1
2018-Jun-17 11:31N 34°36' E 135°12'714.4
2018-Jun-17 11:00N 34°42' E 135°17'0 0.5
2018-Jun-17 10:30N 34°42' E 135°17'0 0.0
2018-Jun-17 10:00N 34°42' E 135°17'0 0.0
2018-Jun-17 09:28N 34°42' E 135°17'0 0.0
2018-Jun-17 08:57N 34°42' E 135°17'0 0.0
2018-Jun-17 08:30N 34°42' E 135°17'0 0.0
2018-Jun-17 08:00N 34°42' E 135°17'0 0.0
2018-Jun-17 07:30N 34°42' E 135°17'0 0.0
2018-Jun-17 06:59N 34°42' E 135°17'0 0.0
2018-Jun-17 06:30N 34°42' E 135°17'0 0.0
2018-Jun-17 06:00N 34°42' E 135°17'0 0.0
2018-Jun-17 05:30N 34°42' E 135°17'0 0.0
2018-Jun-17 04:54N 34°42' E 135°17'0 0.0
2018-Jun-17 04:28N 34°42' E 135°17'0 0.0
2018-Jun-17 04:00N 34°42' E 135°17'0 0.0
2018-Jun-17 03:30N 34°42' E 135°17'0 0.0
2018-Jun-17 03:00N 34°42' E 135°17'0 0.0
2018-Jun-17 02:30N 34°42' E 135°17'0 0.0
2018-Jun-17 02:00N 34°42' E 135°17'0 0.0
2018-Jun-17 01:30N 34°42' E 135°17'0 0.0
2018-Jun-17 01:00N 34°42' E 135°17'0 0.0
2018-Jun-17 00:30N 34°42' E 135°17'0 0.0
2018-Jun-17 00:00N 34°42' E 135°17'0 0.0
2018-Jun-16 23:30N 34°42' E 135°17'2 4.5
2018-Jun-16 23:00N 34°40' E 135°18'816.1
2018-Jun-16 22:30N 34°35' E 135°11'1121.0
2018-Jun-16 21:59N 34°37' E 134°58'1021.2
2018-Jun-16 21:30N 34°32' E 134°46'1121.2
2018-Jun-16 21:00N 34°28' E 134°34'1120.9
2018-Jun-16 20:30N 34°24' E 134°23'7 0.2
2018-Jun-15 13:40N 34°24' E 134°14'322.5
2018-Jun-15 13:30N 34°25' E 134°18'1122.3
2018-Jun-15 13:01N 34°28' E 134°31'1122.7
2018-Jun-15 12:31N 34°32' E 134°44'1325.2
2018-Jun-15 11:59N 34°38' E 134°58'1122.9
2018-Jun-15 11:31N 34°36' E 135°11'714.4
2018-Jun-15 11:01N 34°42' E 135°17'0 0.4
2018-Jun-15 10:28N 34°42' E 135°17'0 0.0
2018-Jun-15 09:56N 34°42' E 135°17'0 0.0
2018-Jun-15 09:29N 34°42' E 135°17'0 0.0
2018-Jun-15 09:00N 34°42' E 135°17'0 0.0
2018-Jun-15 08:30N 34°42' E 135°17'0 0.0
2018-Jun-15 08:00N 34°42' E 135°17'0 0.0
2018-Jun-15 07:30N 34°42' E 135°17'0 0.0
2018-Jun-15 07:00N 34°42' E 135°17'0 0.0
2018-Jun-15 06:31N 34°42' E 135°17'0 0.0
2018-Jun-15 05:57N 34°42' E 135°17'0 0.0
2018-Jun-15 05:30N 34°42' E 135°17'0 0.0
2018-Jun-15 05:01N 34°42' E 135°17'0 0.0
2018-Jun-15 04:29N 34°42' E 135°17'0 0.0
2018-Jun-15 04:00N 34°42' E 135°17'0 0.0
2018-Jun-15 03:30N 34°42' E 135°17'0 0.0
2018-Jun-15 03:00N 34°42' E 135°17'0 0.0
2018-Jun-15 02:31N 34°42' E 135°17'0 0.0
2018-Jun-15 02:00N 34°42' E 135°17'0 0.0
2018-Jun-15 01:30N 34°42' E 135°17'0 0.0
2018-Jun-15 01:00N 34°42' E 135°17'0 0.0
2018-Jun-15 00:28N 34°42' E 135°17'0 0.0
2018-Jun-15 00:00N 34°42' E 135°17'0 0.0
2018-Jun-14 23:29N 34°42' E 135°17'0 0.0
2018-Jun-14 23:00N 34°42' E 135°17'0 0.0
2018-Jun-14 22:30N 34°42' E 135°17'0 0.0
2018-Jun-14 22:01N 34°42' E 135°17'4 8.7
2018-Jun-14 21:31N 34°38' E 135°18'1019.6
2018-Jun-14 21:00N 34°35' E 135°07'1020.0
2018-Jun-14 20:30N 34°35' E 134°54'1121.4
2018-Jun-14 20:00N 34°31' E 134°42'1121.4
2018-Jun-14 19:30N 34°27' E 134°30'1121.2
2018-Jun-14 19:00N 34°24' E 134°18'5 0.2
2018-Jun-13 12:16N 34°25' E 134°12'622.8
2018-Jun-13 12:00N 34°25' E 134°20'1122.7
2018-Jun-13 11:31N 34°29' E 134°33'1223.1
2018-Jun-13 11:01N 34°33' E 134°45'1325.4
2018-Jun-13 10:30N 34°38' E 134°60'1121.9
2018-Jun-13 10:00N 34°36' E 135°13'713.3
2018-Jun-13 09:30N 34°42' E 135°17'0 0.0
2018-Jun-13 09:00N 34°42' E 135°17'0 0.0
2018-Jun-13 08:30N 34°42' E 135°17'0 0.0
2018-Jun-13 08:00N 34°42' E 135°17'0 0.0
2018-Jun-13 07:30N 34°42' E 135°17'0 0.0
2018-Jun-13 07:00N 34°42' E 135°17'0 0.0
2018-Jun-13 06:30N 34°42' E 135°17'0 0.0
2018-Jun-13 06:00N 34°42' E 135°17'0 0.0
2018-Jun-13 05:30N 34°42' E 135°17'0 0.0
2018-Jun-13 05:00N 34°42' E 135°17'0 0.0
2018-Jun-13 04:29N 34°42' E 135°17'0 0.0
2018-Jun-13 04:00N 34°42' E 135°17'0 0.0
2018-Jun-13 03:27N 34°42' E 135°17'0 0.0
2018-Jun-13 03:00N 34°42' E 135°17'0 0.0
2018-Jun-13 02:30N 34°42' E 135°17'0 0.0
2018-Jun-13 01:58N 34°42' E 135°17'0 0.0
2018-Jun-13 01:30N 34°42' E 135°17'0 0.0
2018-Jun-13 01:00N 34°42' E 135°17'0 0.0
2018-Jun-13 00:27N 34°42' E 135°17'0 0.0
2018-Jun-13 00:00N 34°42' E 135°17'0 0.0
2018-Jun-12 23:28N 34°42' E 135°17'0 0.0
2018-Jun-12 23:00N 34°42' E 135°17'0 0.0
2018-Jun-12 22:26N 34°42' E 135°17'0 0.1
2018-Jun-12 22:00N 34°42' E 135°17'4 8.3
2018-Jun-12 21:31N 34°38' E 135°18'1019.1
2018-Jun-12 21:00N 34°35' E 135°07'1019.6
2018-Jun-12 20:30N 34°36' E 134°55'1121.6
2018-Jun-12 20:00N 34°31' E 134°43'1122.2
2018-Jun-12 19:31N 34°27' E 134°31'1122.4
2018-Jun-12 19:01N 34°23' E 134°18'4 0.1
2018-Jun-11 12:14N 34°24' E 134°13'522.2
2018-Jun-11 12:00N 34°25' E 134°20'1122.6
2018-Jun-11 11:30N 34°29' E 134°33'1223.1
2018-Jun-11 11:01N 34°33' E 134°45'1224.1
2018-Jun-11 10:30N 34°38' E 134°59'1122.6
2018-Jun-11 10:00N 34°37' E 135°13'612.6
2018-Jun-11 09:30N 34°42' E 135°17'0 0.0
2018-Jun-11 09:00N 34°42' E 135°17'0 0.0
2018-Jun-11 08:29N 34°42' E 135°17'0 0.0
2018-Jun-11 08:00N 34°42' E 135°17'0 0.0
2018-Jun-11 07:28N 34°42' E 135°17'0 0.0
2018-Jun-11 07:00N 34°42' E 135°17'0 0.0
2018-Jun-11 06:30N 34°42' E 135°17'0 0.0
2018-Jun-11 05:58N 34°42' E 135°17'0 0.0
2018-Jun-11 05:30N 34°42' E 135°17'0 0.0
2018-Jun-11 05:00N 34°42' E 135°17'0 0.0
2018-Jun-11 04:30N 34°42' E 135°17'0 0.0
2018-Jun-11 04:00N 34°42' E 135°17'0 0.0
2018-Jun-11 03:29N 34°42' E 135°17'0 0.0
2018-Jun-11 02:59N 34°42' E 135°17'0 0.0
2018-Jun-11 02:30N 34°42' E 135°17'0 0.0
2018-Jun-11 02:00N 34°42' E 135°17'0 0.0
2018-Jun-11 01:30N 34°42' E 135°17'0 0.0
2018-Jun-11 01:00N 34°42' E 135°17'0 0.0
2018-Jun-11 00:30N 34°42' E 135°17'0 0.0
2018-Jun-11 00:00N 34°42' E 135°17'0 0.0
2018-Jun-10 23:30N 34°42' E 135°17'3 5.3
2018-Jun-10 23:00N 34°39' E 135°18'918.2
2018-Jun-10 22:31N 34°35' E 135°09'816.1
2018-Jun-10 22:00N 34°37' E 134°59'1020.3
2018-Jun-10 21:30N 34°33' E 134°48'1121.7
2018-Jun-10 21:00N 34°29' E 134°36'1122.3
2018-Jun-10 20:30N 34°25' E 134°23'10 0.3
2018-Jun-09 13:51N 34°25' E 134°11'721.3
2018-Jun-09 13:31N 34°25' E 134°19'1122.6
2018-Jun-09 13:01N 34°29' E 134°32'1122.8
2018-Jun-09 12:31N 34°33' E 134°45'1122.7
2018-Jun-09 12:00N 34°37' E 134°58'1121.2
2018-Jun-09 11:30N 34°36' E 135°11'815.5
2018-Jun-09 11:00N 34°42' E 135°17'0 0.6
2018-Jun-09 10:30N 34°42' E 135°17'0 0.0
2018-Jun-09 10:00N 34°42' E 135°17'0 0.0
2018-Jun-09 09:29N 34°42' E 135°17'0 0.0
2018-Jun-09 08:59N 34°42' E 135°17'0 0.0
2018-Jun-09 08:30N 34°42' E 135°17'0 0.0
2018-Jun-09 07:58N 34°42' E 135°17'0 0.0
2018-Jun-09 07:29N 34°42' E 135°17'0 0.0
2018-Jun-09 06:59N 34°42' E 135°17'0 0.0
2018-Jun-09 06:26N 34°42' E 135°17'0 0.0
2018-Jun-09 06:00N 34°42' E 135°17'0 0.0
2018-Jun-09 05:30N 34°42' E 135°17'0 0.0
2018-Jun-09 04:59N 34°42' E 135°17'0 0.0
2018-Jun-09 04:30N 34°42' E 135°17'0 0.0
2018-Jun-09 04:00N 34°42' E 135°17'0 0.0
2018-Jun-09 03:28N 34°42' E 135°17'0 0.0
2018-Jun-09 03:00N 34°42' E 135°17'0 0.0
2018-Jun-09 02:30N 34°42' E 135°17'0 0.0
2018-Jun-09 01:56N 34°42' E 135°17'0 0.0
2018-Jun-09 01:28N 34°42' E 135°17'0 0.0
2018-Jun-09 01:00N 34°42' E 135°17'0 0.0
2018-Jun-09 00:30N 34°42' E 135°17'0 0.0
2018-Jun-09 00:00N 34°42' E 135°17'0 0.0
2018-Jun-08 23:30N 34°42' E 135°17'3 5.4
2018-Jun-08 23:00N 34°39' E 135°18'  

Dump ship's entire track history